Terminal Aerodrome Forecast
Issued by NWS Topeka, KS

Home | Current Version | Previous Version | Graphics & Text | Print | Product List | Glossary On
Versions: 1 2 3 4 5 6 7 8 9 10 11 12 13 14 15 16 17
000
FTUS43 KTOP 180719 AAA
TAFTOP
TAF AMD
KTOP 180719Z 1807/1906 32010KT P6SM SCT020 BKN100
      TEMPO 1807/1808 3SM BR OVC003
     FM180800 34021G30KT P6SM VCSH SCT008 OVC012
      TEMPO 1812/1816 5SM -RA BR
     FM181600 32020G28KT P6SM FEW050 SCT150
     FM190000 31007KT P6SM SKC=

USA.gov is the U.S. government's official web portal to all federal, state and local government web resources and services.